Time;durP1;ratioP1;P1;durP2;ratioP2;P2;SDS_P1;SDS_P2;PMS_P1;PMS_P2;Temp;Humidity;BMP_temperature;BMP_pressure;BME280_temperature;BME280_humidity;BME280_pressure;Samples;Min_cycle;Max_cycle;Signal;HPM_P1;HPM_P2
2024/01/18 00:01:26;;;;;;;2.53;0.60;;;;;;;;;;5212840;22;20015;-83
2024/01/18 00:03:40;;;;;;;1.33;0.50;;;;;;;;;;5189380;23;20020;-82
2024/01/18 00:05:50;;;;;;;1.73;0.60;;;;;;;;;;5188248;23;20149;-82
2024/01/18 00:08:01;;;;;;;4.88;0.77;;;;;;;;;;5214555;22;20011;-82
2024/01/18 00:10:34;;;;;;;1.63;0.52;;;;;;;;;;5218848;22;20025;-82
2024/01/18 00:12:48;;;;;;;2.88;0.75;;;;;;;;;;5215243;22;20074;-82
2024/01/18 00:14:51;;;;;;;3.70;0.75;;;;;;;;;;5217244;22;20016;-82
2024/01/18 00:16:52;;;;;;;4.10;1.25;;;;;;;;;;5189205;22;20028;-80
2024/01/18 00:18:55;;;;;;;1.58;0.82;;;;;;;;;;5216445;22;20051;-80
2024/01/18 00:21:04;;;;;;;2.20;1.45;;;;;;;;;;5216387;22;20020;-80
2024/01/18 00:23:12;;;;;;;4.78;0.95;;;;;;;;;;5215443;22;20016;-83
2024/01/18 00:25:20;;;;;;;3.20;1.15;;;;;;;;;;5213779;22;20046;-83
2024/01/18 00:27:23;;;;;;;1.63;0.73;;;;;;;;;;5188149;23;20076;-83
2024/01/18 00:29:26;;;;;;;2.20;1.33;;;;;;;;;;5213257;22;20026;-83
2024/01/18 00:31:44;;;;;;;1.75;0.82;;;;;;;;;;5212269;22;20044;-83
2024/01/18 00:33:58;;;;;;;1.27;0.55;;;;;;;;;;5210517;22;20019;-83
2024/01/18 00:36:06;;;;;;;2.33;0.60;;;;;;;;;;5207579;22;20023;-82
2024/01/18 00:38:08;;;;;;;3.97;0.75;;;;;;;;;;5207399;22;20021;-83
2024/01/18 00:40:12;;;;;;;3.53;0.57;;;;;;;;;;5205709;22;20028;-82
2024/01/18 00:42:13;;;;;;;4.75;1.42;;;;;;;;;;5206486;22;20024;-83
2024/01/18 00:44:16;;;;;;;8.13;1.13;;;;;;;;;;5181813;23;20016;-82
2024/01/18 00:46:23;;;;;;;6.07;0.63;;;;;;;;;;5207924;22;20023;-82
2024/01/18 00:48:25;;;;;;;2.67;1.58;;;;;;;;;;5208790;22;20016;-83
2024/01/18 00:50:32;;;;;;;1.77;0.80;;;;;;;;;;5214401;22;20004;-82
2024/01/18 00:52:44;;;;;;;1.98;0.93;;;;;;;;;;5213550;22;20019;-82
2024/01/18 00:55:06;;;;;;;2.92;0.82;;;;;;;;;;5213677;22;20020;-82
2024/01/18 00:57:08;;;;;;;2.38;1.00;;;;;;;;;;5213587;22;20029;-82
2024/01/18 00:59:11;;;;;;;5.68;1.05;;;;;;;;;;5213125;22;20478;-82
2024/01/18 01:01:25;;;;;;;4.05;1.38;;;;;;;;;;5213847;22;20055;-82
2024/01/18 01:03:38;;;;;;;6.40;1.33;;;;;;;;;;5215248;22;20020;-82
2024/01/18 01:05:44;;;;;;;3.17;1.30;;;;;;;;;;5214142;22;20019;-82
2024/01/18 01:07:55;;;;;;;1.98;0.80;;;;;;;;;;5188092;23;20006;-83
2024/01/18 01:09:57;;;;;;;10.35;1.08;;;;;;;;;;5213901;22;20054;-83
2024/01/18 01:12:00;;;;;;;8.65;1.00;;;;;;;;;;5212148;22;20378;-82
2024/01/18 01:14:03;;;;;;;4.75;0.70;;;;;;;;;;5210549;22;20063;-82
2024/01/18 01:16:05;;;;;;;3.25;1.02;;;;;;;;;;5212313;22;20020;-82
2024/01/18 01:18:13;;;;;;;2.70;0.82;;;;;;;;;;5254681;22;20002;-82
2024/01/18 01:20:15;;;;;;;6.63;0.98;;;;;;;;;;5265108;22;20011;-82
2024/01/18 01:22:17;;;;;;;12.57;1.42;;;;;;;;;;5236584;22;20015;-82
2024/01/18 01:24:21;;;;;;;1.40;0.70;;;;;;;;;;5266258;22;20019;-82
2024/01/18 01:26:42;;;;;;;2.95;0.82;;;;;;;;;;5240026;22;20071;-82
2024/01/18 01:28:51;;;;;;;6.95;0.93;;;;;;;;;;5238936;22;20054;-83
2024/01/18 01:30:58;;;;;;;3.58;1.42;;;;;;;;;;5265993;22;20014;-83
2024/01/18 01:33:01;;;;;;;2.40;0.85;;;;;;;;;;5213956;22;20043;-83
2024/01/18 01:35:03;;;;;;;3.05;0.90;;;;;;;;;;5237700;22;20022;-83
2024/01/18 01:37:13;;;;;;;2.35;0.68;;;;;;;;;;5211845;22;20008;-83
2024/01/18 01:39:18;;;;;;;8.18;1.17;;;;;;;;;;5238005;22;20015;-83
2024/01/18 01:41:23;;;;;;;5.18;0.70;;;;;;;;;;5238853;22;20030;-83
2024/01/18 01:43:25;;;;;;;3.92;0.75;;;;;;;;;;5265336;22;20015;-83
2024/01/18 01:45:31;;;;;;;5.45;1.08;;;;;;;;;;5265208;22;20009;-82
2024/01/18 01:47:34;;;;;;;3.65;1.25;;;;;;;;;;5264620;22;20015;-82
2024/01/18 01:49:36;;;;;;;1.13;0.55;;;;;;;;;;5237769;22;20050;-82
2024/01/18 01:51:47;;;;;;;4.70;0.77;;;;;;;;;;5264462;22;20015;-82
2024/01/18 01:54:00;;;;;;;5.00;1.17;;;;;;;;;;5238352;22;20026;-82
2024/01/18 01:56:07;;;;;;;2.97;1.00;;;;;;;;;;5238212;22;20019;-83
2024/01/18 01:58:15;;;;;;;2.20;0.68;;;;;;;;;;5265018;22;20001;-83
2024/01/18 02:00:22;;;;;;;2.63;0.37;;;;;;;;;;5264775;22;20015;-83
2024/01/18 02:02:30;;;;;;;1.08;0.38;;;;;;;;;;5211622;22;20282;-83
2024/01/18 02:04:33;;;;;;;6.35;1.58;;;;;;;;;;5238114;22;20053;-83
2024/01/18 02:06:36;;;;;;;5.45;0.70;;;;;;;;;;5238612;22;20029;-82
2024/01/18 02:08:39;;;;;;;2.88;0.55;;;;;;;;;;5264939;22;20015;-82
2024/01/18 02:10:42;;;;;;;7.70;1.17;;;;;;;;;;5238132;22;19999;-82
2024/01/18 02:12:46;;;;;;;3.47;1.67;;;;;;;;;;5238337;22;20027;-83
2024/01/18 02:14:55;;;;;;;4.93;0.60;;;;;;;;;;5237088;22;20000;-82
2024/01/18 02:16:57;;;;;;;2.70;0.63;;;;;;;;;;5238502;22;20023;-83
2024/01/18 02:19:10;;;;;;;2.10;0.73;;;;;;;;;;5239039;22;20395;-83
2024/01/18 02:21:13;;;;;;;4.45;0.85;;;;;;;;;;5237879;22;20079;-82
2024/01/18 02:23:31;;;;;;;3.67;0.52;;;;;;;;;;5237774;22;20023;-82
2024/01/18 02:25:43;;;;;;;2.45;0.93;;;;;;;;;;5239960;22;20074;-82
2024/01/18 02:27:46;;;;;;;2.60;0.60;;;;;;;;;;5237453;22;20024;-82
2024/01/18 02:29:54;;;;;;;2.58;0.47;;;;;;;;;;5238187;22;20067;-82
2024/01/18 02:31:56;;;;;;;3.05;0.60;;;;;;;;;;5238467;22;20019;-82
2024/01/18 02:33:58;;;;;;;3.72;1.20;;;;;;;;;;5237161;22;20019;-82
2024/01/18 02:36:01;;;;;;;5.18;0.60;;;;;;;;;;5236197;22;20011;-83
2024/01/18 02:38:05;;;;;;;8.35;0.60;;;;;;;;;;5236287;22;20063;-83
2024/01/18 02:40:12;;;;;;;5.68;0.50;;;;;;;;;;5237421;22;20019;-84
2024/01/18 02:42:16;;;;;;;5.80;0.70;;;;;;;;;;5238971;22;20023;-83
2024/01/18 02:44:18;;;;;;;3.58;0.60;;;;;;;;;;5237704;22;20015;-83
2024/01/18 02:46:20;;;;;;;2.97;0.60;;;;;;;;;;5240073;22;20019;-84
2024/01/18 02:48:24;;;;;;;1.95;0.80;;;;;;;;;;5241335;22;20019;-83
2024/01/18 02:50:25;;;;;;;1.52;0.50;;;;;;;;;;5236931;22;20015;-83
2024/01/18 02:52:27;;;;;;;4.47;0.75;;;;;;;;;;5235916;22;20011;-83
2024/01/18 02:54:29;;;;;;;3.75;0.82;;;;;;;;;;5234658;22;20484;-83
2024/01/18 02:56:34;;;;;;;3.47;0.68;;;;;;;;;;5235615;22;20480;-83
2024/01/18 02:58:36;;;;;;;4.32;0.45;;;;;;;;;;5235581;22;20077;-83
2024/01/18 03:00:42;;;;;;;3.47;1.00;;;;;;;;;;5209305;22;20046;-84
2024/01/18 03:02:54;;;;;;;4.18;0.52;;;;;;;;;;5234621;22;20015;-83
2024/01/18 03:04:56;;;;;;;6.38;0.85;;;;;;;;;;5235431;22;20015;-83
2024/01/18 03:07:00;;;;;;;7.93;0.77;;;;;;;;;;5234444;22;20018;-84
2024/01/18 03:09:02;;;;;;;2.17;0.43;;;;;;;;;;5235758;22;20392;-83
2024/01/18 03:11:12;;;;;;;5.13;0.70;;;;;;;;;;5235340;22;20019;-83
2024/01/18 03:13:14;;;;;;;3.55;0.40;;;;;;;;;;5235963;22;20042;-84
2024/01/18 03:15:17;;;;;;;2.63;0.50;;;;;;;;;;5238650;22;20019;-84
2024/01/18 03:17:18;;;;;;;2.47;0.47;;;;;;;;;;5245282;22;20015;-83
2024/01/18 03:19:21;;;;;;;5.40;0.50;;;;;;;;;;5260789;22;20015;-82
2024/01/18 03:21:24;;;;;;;4.85;0.77;;;;;;;;;;5262614;22;20026;-83
2024/01/18 03:23:25;;;;;;;1.38;0.60;;;;;;;;;;5263499;22;20042;-83
2024/01/18 03:25:27;;;;;;;1.45;0.50;;;;;;;;;;5265160;22;20032;-83
2024/01/18 03:27:36;;;;;;;4.50;0.73;;;;;;;;;;5264857;22;20022;-83
2024/01/18 03:29:39;;;;;;;;;;;;;;;;;;5237638;22;20029;-84
2024/01/18 03:31:43;;;;;;;2.58;0.40;;;;;;;;;;5264616;22;19914;-83
2024/01/18 03:33:52;;;;;;;4.80;0.70;;;;;;;;;;5237675;22;20023;-83
2024/01/18 03:35:57;;;;;;;1.65;0.60;;;;;;;;;;5264147;22;20038;-82
2024/01/18 03:38:17;;;;;;;7.88;0.47;;;;;;;;;;5265614;22;20018;-83
2024/01/18 03:40:20;;;;;;;2.65;0.50;;;;;;;;;;5264951;22;20021;-82
2024/01/18 03:42:29;;;;;;;1.70;0.45;;;;;;;;;;5265251;22;20018;-82
2024/01/18 03:44:31;;;;;;;5.10;0.70;;;;;;;;;;5264468;22;20067;-82
2024/01/18 03:46:49;;;;;;;5.15;0.77;;;;;;;;;;5238575;22;20035;-82
2024/01/18 03:48:52;;;;;;;1.20;0.40;;;;;;;;;;5266499;22;20026;-82
2024/01/18 03:50:58;;;;;;;4.35;0.70;;;;;;;;;;5266928;22;20015;-82
2024/01/18 03:53:08;;;;;;;2.80;0.55;;;;;;;;;;5267314;22;20062;-82
2024/01/18 03:55:15;;;;;;;6.05;0.50;;;;;;;;;;5267364;22;20011;-82
2024/01/18 03:57:32;;;;;;;0.30;0.22;;;;;;;;;;5266384;22;20059;-82
2024/01/18 03:59:40;;;;;;;1.58;0.50;;;;;;;;;;5265450;22;20042;-82
2024/01/18 04:01:41;;;;;;;4.05;1.30;;;;;;;;;;5266186;22;20019;-82
2024/01/18 04:03:51;;;;;;;3.45;0.47;;;;;;;;;;5266631;22;19998;-82
2024/01/18 04:05:52;;;;;;;2.45;0.17;;;;;;;;;;5267007;22;20042;-82
2024/01/18 04:07:55;;;;;;;2.78;0.30;;;;;;;;;;5265648;22;20011;-82
2024/01/18 04:10:03;;;;;;;3.70;0.30;;;;;;;;;;5265979;22;20022;-82
2024/01/18 04:12:10;;;;;;;3.72;0.32;;;;;;;;;;5266188;22;20047;-82
2024/01/18 04:14:12;;;;;;;0.98;0.30;;;;;;;;;;5239739;22;20023;-82
2024/01/18 04:16:14;;;;;;;0.77;0.32;;;;;;;;;;5265968;22;20063;-82
2024/01/18 04:18:28;;;;;;;0.28;0.15;;;;;;;;;;5265121;22;20052;-82
2024/01/18 04:20:38;;;;;;;5.93;0.30;;;;;;;;;;5266002;22;20075;-82
2024/01/18 04:22:40;;;;;;;2.20;0.20;;;;;;;;;;5266289;22;20067;-83
2024/01/18 04:24:42;;;;;;;1.35;0.38;;;;;;;;;;5238527;22;20028;-82
2024/01/18 04:26:49;;;;;;;3.10;0.30;;;;;;;;;;5266098;22;20061;-83
2024/01/18 04:28:54;;;;;;;0.10;0.10;;;;;;;;;;5264433;22;20394;-82
2024/01/18 04:30:57;;;;;;;5.35;0.50;;;;;;;;;;5265281;22;20064;-82
2024/01/18 04:32:59;;;;;;;1.45;0.17;;;;;;;;;;5237387;22;20025;-83
2024/01/18 04:35:01;;;;;;;2.20;0.20;;;;;;;;;;5263587;22;20044;-83
2024/01/18 04:37:07;;;;;;;0.60;0.20;;;;;;;;;;5263098;22;20015;-82
2024/01/18 04:39:09;;;;;;;0.50;0.10;;;;;;;;;;5264809;22;20066;-82
2024/01/18 04:41:15;;;;;;;2.42;0.20;;;;;;;;;;5264074;22;20018;-82
2024/01/18 04:43:26;;;;;;;3.25;0.10;;;;;;;;;;5263266;22;20022;-83
2024/01/18 04:45:33;;;;;;;1.48;0.20;;;;;;;;;;5262514;22;20042;-83
2024/01/18 04:47:35;;;;;;;0.47;0.10;;;;;;;;;;5261681;22;20018;-83
2024/01/18 04:49:37;;;;;;;2.38;0.32;;;;;;;;;;5236549;22;20030;-83
2024/01/18 04:51:46;;;;;;;0.20;0.10;;;;;;;;;;5264069;22;20022;-83
2024/01/18 04:53:52;;;;;;;1.45;0.10;;;;;;;;;;5263881;22;20065;-83
2024/01/18 04:56:01;;;;;;;1.88;0.30;;;;;;;;;;5264418;22;20066;-83
2024/01/18 04:58:12;;;;;;;4.38;0.20;;;;;;;;;;5264663;22;20015;-83
2024/01/18 05:00:25;;;;;;;0.35;0.08;;;;;;;;;;5237727;22;20105;-83
2024/01/18 05:02:27;;;;;;;0.20;0.10;;;;;;;;;;5264654;22;20019;-83
2024/01/18 05:04:29;;;;;;;0.00;0.00;;;;;;;;;;5211107;22;20015;-84
2024/01/18 05:06:41;;;;;;;0.10;0.10;;;;;;;;;;5264119;22;20042;-83
2024/01/18 05:08:50;;;;;;;0.15;0.08;;;;;;;;;;5236954;22;20015;-82
2024/01/18 05:10:59;;;;;;;0.60;0.38;;;;;;;;;;5264681;22;20015;-82
2024/01/18 05:13:09;;;;;;;1.25;0.32;;;;;;;;;;5265056;22;20461;-82
2024/01/18 05:15:12;;;;;;;0.88;0.10;;;;;;;;;;5212649;22;20107;-82
2024/01/18 05:17:16;;;;;;;3.03;0.20;;;;;;;;;;5265560;22;20011;-82
2024/01/18 05:19:54;;;;;;;3.83;0.30;;;;;;;;;;5264697;22;20060;-82
2024/01/18 05:22:20;;;;;;;0.50;0.20;;;;;;;;;;5265784;22;20025;-82
2024/01/18 05:24:59;;;;;;;0.28;0.10;;;;;;;;;;5266710;22;20019;-82
2024/01/18 05:29:36;;;;;;;0.70;0.22;;;;;;;;;;5265638;22;20022;-82
2024/01/18 05:31:43;;;;;;;1.27;0.45;;;;;;;;;;5266785;22;20042;-82
2024/01/18 05:33:59;;;;;;;0.57;0.17;;;;;;;;;;5267668;22;20066;-80
2024/01/18 05:36:03;;;;;;;0.73;0.20;;;;;;;;;;5268614;22;20023;-82
2024/01/18 05:38:09;;;;;;;3.40;0.60;;;;;;;;;;5268054;22;20002;-82
2024/01/18 05:40:13;;;;;;;0.95;0.20;;;;;;;;;;5268351;22;20070;-82
2024/01/18 05:42:14;;;;;;;4.97;0.82;;;;;;;;;;5266482;22;20333;-82
2024/01/18 05:44:28;;;;;;;2.42;0.32;;;;;;;;;;5268296;22;20025;-82
2024/01/18 05:46:30;;;;;;;3.63;0.75;;;;;;;;;;5241249;22;20010;-82
2024/01/18 05:48:32;;;;;;;8.07;0.82;;;;;;;;;;5267646;22;20042;-82
2024/01/18 05:50:35;;;;;;;1.35;0.70;;;;;;;;;;5238427;22;20418;-82
2024/01/18 05:52:37;;;;;;;0.43;0.20;;;;;;;;;;5265591;22;20057;-82
2024/01/18 05:54:42;;;;;;;1.05;0.28;;;;;;;;;;5265694;22;20006;-82
2024/01/18 05:56:46;;;;;;;0.77;0.30;;;;;;;;;;5265490;22;20015;-82
2024/01/18 05:59:09;;;;;;;5.80;0.77;;;;;;;;;;5264943;22;20019;-82
2024/01/18 06:01:13;;;;;;;2.03;0.52;;;;;;;;;;5264283;22;20018;-82
2024/01/18 06:03:24;;;;;;;2.35;0.45;;;;;;;;;;5265644;22;20005;-82
2024/01/18 06:05:31;;;;;;;2.22;0.52;;;;;;;;;;5265217;22;20010;-82
2024/01/18 06:07:40;;;;;;;3.80;0.40;;;;;;;;;;5266000;22;20018;-82
2024/01/18 06:09:41;;;;;;;3.50;0.30;;;;;;;;;;5212329;22;20024;-82
2024/01/18 06:11:49;;;;;;;5.25;0.52;;;;;;;;;;5238253;22;20026;-82
2024/01/18 06:13:52;;;;;;;0.75;0.68;;;;;;;;;;5265736;22;20026;-82
2024/01/18 06:15:59;;;;;;;1.50;0.30;;;;;;;;;;5265175;22;20042;-82
2024/01/18 06:18:03;;;;;;;0.60;0.20;;;;;;;;;;5237854;22;20027;-82
2024/01/18 06:20:06;;;;;;;5.22;0.38;;;;;;;;;;5264892;22;20071;-82
2024/01/18 06:22:10;;;;;;;2.78;0.30;;;;;;;;;;5264773;22;20042;-82
2024/01/18 06:24:15;;;;;;;2.67;0.43;;;;;;;;;;5265476;22;20026;-82
2024/01/18 06:26:33;;;;;;;3.13;0.55;;;;;;;;;;5237603;22;20039;-82
2024/01/18 06:28:39;;;;;;;;;;;;;;;;;;5265079;22;20058;-82
2024/01/18 06:30:48;;;;;;;1.27;0.30;;;;;;;;;;5265886;22;19942;-82
2024/01/18 06:32:51;;;;;;;3.85;0.30;;;;;;;;;;5263927;22;20011;-82
2024/01/18 06:34:53;;;;;;;0.77;0.28;;;;;;;;;;5264481;22;20094;-82
2024/01/18 06:36:58;;;;;;;2.50;0.30;;;;;;;;;;5265286;22;20026;-82
2024/01/18 06:39:05;;;;;;;0.60;0.38;;;;;;;;;;5238562;22;20020;-82
2024/01/18 06:41:10;;;;;;;4.80;0.50;;;;;;;;;;5265704;22;20014;-81
2024/01/18 06:43:13;;;;;;;3.33;0.80;;;;;;;;;;5265279;22;20014;-82
2024/01/18 06:45:18;;;;;;;1.58;0.60;;;;;;;;;;5238148;22;20019;-82
2024/01/18 06:47:20;;;;;;;4.40;1.10;;;;;;;;;;5264647;22;20062;-82
2024/01/18 06:49:27;;;;;;;3.58;1.02;;;;;;;;;;5265500;22;20018;-82
2024/01/18 06:51:45;;;;;;;1.55;0.43;;;;;;;;;;5265436;22;20021;-82
2024/01/18 06:53:46;;;;;;;1.73;0.77;;;;;;;;;;5265127;22;20021;-82
2024/01/18 06:55:50;;;;;;;4.40;0.70;;;;;;;;;;5238304;22;20015;-82
2024/01/18 06:58:02;;;;;;;4.35;0.60;;;;;;;;;;5239423;22;20022;-82
2024/01/18 07:00:04;;;;;;;6.70;0.82;;;;;;;;;;5265827;22;20082;-82
2024/01/18 07:02:19;;;;;;;1.30;0.50;;;;;;;;;;5265475;22;19999;-82
2024/01/18 07:04:22;;;;;;;4.60;1.15;;;;;;;;;;5265393;22;20067;-82
2024/01/18 07:06:24;;;;;;;3.08;0.60;;;;;;;;;;5264495;22;20040;-82
2024/01/18 07:08:27;;;;;;;2.05;1.05;;;;;;;;;;5264559;22;20055;-82
2024/01/18 07:10:33;;;;;;;2.97;0.40;;;;;;;;;;5264576;22;20022;-82
2024/01/18 07:12:38;;;;;;;0.63;0.50;;;;;;;;;;5236785;22;20015;-82
2024/01/18 07:14:43;;;;;;;4.20;0.47;;;;;;;;;;5237542;22;20020;-82
2024/01/18 07:16:44;;;;;;;0.63;0.40;;;;;;;;;;5263810;22;20015;-82
2024/01/18 07:19:11;;;;;;;1.55;0.30;;;;;;;;;;5236620;22;20023;-82
2024/01/18 07:21:15;;;;;;;3.42;0.47;;;;;;;;;;5237689;22;19999;-82
2024/01/18 07:23:20;;;;;;;4.07;0.40;;;;;;;;;;5264464;22;20030;-82
2024/01/18 07:25:21;;;;;;;1.38;0.20;;;;;;;;;;5264136;22;20019;-82
2024/01/18 07:27:30;;;;;;;1.23;0.20;;;;;;;;;;5264713;22;20345;-82
2024/01/18 07:29:37;;;;;;;2.35;0.28;;;;;;;;;;5264360;22;20041;-82
2024/01/18 07:31:46;;;;;;;5.90;0.60;;;;;;;;;;5264343;22;20026;-82
2024/01/18 07:33:53;;;;;;;13.02;1.70;;;;;;;;;;5263387;22;20030;-82
2024/01/18 07:36:01;;;;;;;2.28;0.52;;;;;;;;;;5239456;22;20031;-82
2024/01/18 07:38:13;;;;;;;5.93;1.38;;;;;;;;;;5265437;22;20018;-82
2024/01/18 07:40:25;;;;;;;0.95;0.40;;;;;;;;;;5264582;22;20041;-82
2024/01/18 07:42:32;;;;;;;1.85;0.55;;;;;;;;;;5265840;22;20041;-83
2024/01/18 07:44:35;;;;;;;5.82;0.60;;;;;;;;;;5265740;22;20441;-83
2024/01/18 07:46:42;;;;;;;5.50;0.57;;;;;;;;;;5266204;22;20049;-82
2024/01/18 07:48:44;;;;;;;3.38;0.57;;;;;;;;;;5265380;22;20015;-82
2024/01/18 07:50:53;;;;;;;2.75;0.50;;;;;;;;;;5265354;22;20015;-83
2024/01/18 07:52:57;;;;;;;2.20;0.75;;;;;;;;;;5266548;22;20027;-83
2024/01/18 07:55:16;;;;;;;5.10;2.42;;;;;;;;;;5265379;22;20028;-83
2024/01/18 07:57:27;;;;;;;2.70;0.80;;;;;;;;;;5265628;22;20019;-83
2024/01/18 07:59:30;;;;;;;4.63;0.65;;;;;;;;;;5263190;22;20072;-83
2024/01/18 08:01:40;;;;;;;8.77;0.77;;;;;;;;;;5264501;22;20058;-78
2024/01/18 08:03:49;;;;;;;4.55;0.70;;;;;;;;;;5265542;22;20015;-77
2024/01/18 08:05:51;;;;;;;4.05;0.80;;;;;;;;;;5267276;22;20021;-79
2024/01/18 08:07:55;;;;;;;7.10;1.30;;;;;;;;;;5240640;22;20015;-80
2024/01/18 08:10:11;;;;;;;2.67;0.57;;;;;;;;;;5266911;22;20015;-81
2024/01/18 08:12:16;;;;;;;1.98;0.70;;;;;;;;;;5267032;22;20026;-81
2024/01/18 08:14:18;;;;;;;2.17;0.95;;;;;;;;;;5266163;22;20005;-81
2024/01/18 08:16:24;;;;;;;3.90;1.45;;;;;;;;;;5240182;22;20077;-81
2024/01/18 08:18:40;;;;;;;6.60;0.95;;;;;;;;;;5266160;22;20028;-81
2024/01/18 08:20:53;;;;;;;2.10;0.90;;;;;;;;;;5266884;22;20052;-81
2024/01/18 08:22:54;;;;;;;4.18;1.23;;;;;;;;;;5265768;22;19995;-81
2024/01/18 08:27:27;;;;;;;4.30;1.10;;;;;;;;;;5264153;22;20070;-81
2024/01/18 08:29:28;;;;;;;9.70;1.10;;;;;;;;;;5266547;22;20022;-81
2024/01/18 08:31:35;;;;;;;4.00;0.80;;;;;;;;;;5267349;22;20019;-81
2024/01/18 08:33:45;;;;;;;2.00;0.65;;;;;;;;;;5266892;22;20062;-80
2024/01/18 08:35:47;;;;;;;2.08;0.50;;;;;;;;;;5266461;22;20022;-81
2024/01/18 08:40:25;;;;;;;2.72;0.50;;;;;;;;;;5264844;22;20074;-81
2024/01/18 08:42:29;;;;;;;5.32;0.70;;;;;;;;;;5210924;22;20051;-81
2024/01/18 08:44:45;;;;;;;2.47;0.47;;;;;;;;;;5263998;22;20018;-81
2024/01/18 08:46:47;;;;;;;4.50;0.82;;;;;;;;;;5237756;22;20054;-79
2024/01/18 08:48:49;;;;;;;1.25;0.45;;;;;;;;;;5264199;22;20021;-78
2024/01/18 08:50:51;;;;;;;2.13;0.50;;;;;;;;;;5243450;22;20016;-79
2024/01/18 08:52:59;;;;;;;0.93;0.40;;;;;;;;;;5266015;22;20018;-78
2024/01/18 08:55:05;;;;;;;5.88;0.63;;;;;;;;;;5265924;22;20022;-78
2024/01/18 08:57:13;;;;;;;3.47;0.88;;;;;;;;;;5265634;22;20021;-77
2024/01/18 08:59:35;;;;;;;5.18;0.80;;;;;;;;;;5266443;22;20042;-78
2024/01/18 09:01:52;;;;;;;2.20;0.47;;;;;;;;;;5238762;22;20019;-79
2024/01/18 09:03:57;;;;;;;7.63;0.85;;;;;;;;;;5265841;22;20015;-79
2024/01/18 09:05:59;;;;;;;5.93;1.08;;;;;;;;;;5238753;22;20056;-79
2024/01/18 09:08:00;;;;;;;2.63;0.60;;;;;;;;;;5265673;22;20046;-79
2024/01/18 09:10:08;;;;;;;2.83;0.60;;;;;;;;;;5265948;22;20048;-79
2024/01/18 09:12:14;;;;;;;1.73;0.70;;;;;;;;;;5265256;22;20055;-79
2024/01/18 09:14:37;;;;;;;2.60;0.75;;;;;;;;;;5264468;22;20019;-78
2024/01/18 09:16:47;;;;;;;1.95;0.60;;;;;;;;;;5264093;22;20465;-80
2024/01/18 09:18:54;;;;;;;1.13;0.60;;;;;;;;;;5213308;22;20020;-81
2024/01/18 09:20:57;;;;;;;1.17;0.60;;;;;;;;;;5212841;22;20016;-80
2024/01/18 09:22:59;;;;;;;1.58;0.50;;;;;;;;;;5209560;22;20019;-81
2024/01/18 09:25:01;;;;;;;2.30;0.50;;;;;;;;;;5205832;22;20072;-80
2024/01/18 09:27:02;;;;;;;5.10;0.40;;;-0.70;99.90;;;;;;5202394;22;20097;-80
2024/01/18 09:29:05;;;;;;;1.48;0.50;;;3.20;99.90;;;;;;5201982;22;20443;-80
2024/01/18 09:31:07;;;;;;;1.90;0.55;;;4.00;99.90;;;;;;5201739;22;20023;-80
2024/01/18 09:33:08;;;;;;;1.67;0.32;;;5.10;99.90;;;;;;5198987;22;20450;-81
2024/01/18 09:35:09;;;;;;;3.92;0.50;;;7.10;99.90;;;;;;5198984;22;20055;-80
2024/01/18 09:37:11;;;;;;;1.40;0.40;;;;;;;;;;5196147;22;20479;-80
2024/01/18 09:39:15;;;;;;;4.45;0.98;;;;;;;;;;5196096;22;20444;-81
2024/01/18 09:41:18;;;;;;;1.33;0.30;;;;;;;;;;5196250;22;20016;-81
2024/01/18 09:43:20;;;;;;;3.15;0.60;;;;;;;;;;5194135;22;20016;-80
2024/01/18 09:45:26;;;;;;;3.63;0.65;;;;;;;;;;5195391;22;20434;-80
2024/01/18 09:47:27;;;;;;;1.30;0.38;;;;;;;;;;5194880;22;20019;-80
2024/01/18 09:49:29;;;;;;;3.72;0.60;;;;;;;;;;5194369;22;20024;-81
2024/01/18 09:51:31;;;;;;;1.00;0.25;;;;;;;;;;5192586;22;20386;-80
2024/01/18 09:53:35;;;;;;;1.40;0.50;;;;;;;;;;5194433;22;20073;-81
2024/01/18 09:55:36;;;;;;;1.65;0.38;;;;;;;;;;5194286;22;20016;-80
2024/01/18 09:57:41;;;;;;;2.83;0.30;;;7.50;99.90;;;;;;5192532;22;20019;-80
2024/01/18 09:59:45;;;;;;;1.98;0.50;;;;;;;;;;5193901;22;20072;-80
2024/01/18 10:01:46;;;;;;;4.50;0.30;;;;;;;;;;5194760;22;20442;-81
2024/01/18 10:03:48;;;;;;;1.75;0.50;;;;;;;;;;5194980;22;20028;-80
2024/01/18 10:05:52;;;;;;;3.22;1.77;;;;;;;;;;5211716;22;20030;-79
2024/01/18 10:07:53;;;;;;;1.42;0.70;;;;;;;;;;5213631;22;20004;-79
2024/01/18 10:09:54;;;;;;;0.75;0.40;;;;;;;;;;5213690;22;20003;-79
2024/01/18 10:11:55;;;;;;;2.42;1.58;;;;;;;;;;5212396;22;20394;-79
2024/01/18 10:13:59;;;;;;;1.70;0.40;;;;;;;;;;5205095;22;20020;-80
2024/01/18 10:16:01;;;;;;;0.30;0.20;;;;;;;;;;5197772;22;20064;-80
2024/01/18 10:18:03;;;;;;;1.02;0.15;;;;;;;;;;5196984;22;20019;-80
2024/01/18 10:20:04;;;;;;;0.00;0.00;;;;;;;;;;5198571;22;20043;-80
2024/01/18 10:22:05;;;;;;;1.25;0.20;;;;;;;;;;5199695;22;20081;-80
2024/01/18 10:24:11;;;;;;;0.20;0.00;;;;;;;;;;5199411;22;20016;-80
2024/01/18 10:26:13;;;;;;;2.13;0.20;;;;;;;;;;5199581;22;20023;-80
2024/01/18 10:28:15;;;;;;;2.08;0.40;;;;;;;;;;5198585;22;20019;-80
2024/01/18 10:30:17;;;;;;;0.35;0.20;;;;;;;;;;5198116;22;20070;-81
2024/01/18 10:32:18;;;;;;;0.10;0.10;;;;;;;;;;5198037;22;20418;-80
2024/01/18 10:34:20;;;;;;;0.80;0.20;;;;;;;;;;5197939;22;20101;-80
2024/01/18 10:36:22;;;;;;;2.70;0.75;;;;;;;;;;5194823;22;20016;-80
2024/01/18 10:38:29;;;;;;;1.23;0.40;;;;;;;;;;5195350;22;20027;-80
2024/01/18 10:40:36;;;;;;;0.75;0.30;;;;;;;;;;5195482;22;20049;-79
2024/01/18 10:42:38;;;;;;;1.00;0.30;;;;;;;;;;5193987;22;20038;-80
2024/01/18 10:44:42;;;;;;;1.48;0.20;;;;;;;;;;5194652;22;20027;-80
2024/01/18 10:46:44;;;;;;;3.13;0.25;;;;;;;;;;5194640;22;20454;-79
2024/01/18 10:48:46;;;;;;;1.58;0.15;;;;;;;;;;5195953;22;20095;-80
2024/01/18 10:50:48;;;;;;;1.35;0.20;;;;;;;;;;5194545;22;20096;-79
2024/01/18 10:52:51;;;;;;;0.47;0.17;;;;;;;;;;5194123;22;20023;-80
2024/01/18 10:54:53;;;;;;;1.05;0.50;;;;;;;;;;5195896;22;20038;-79
2024/01/18 10:56:54;;;;;;;1.92;0.30;;;;;;;;;;5196976;22;20495;-79
2024/01/18 10:58:56;;;;;;;1.55;0.82;;;;;;;;;;5198079;22;20104;-80
2024/01/18 11:00:58;;;;;;;3.60;0.30;;;;;;;;;;5206189;22;20046;-79
2024/01/18 11:03:01;;;;;;;2.03;0.20;;;;;;;;;;5211319;22;20095;-80
2024/01/18 11:05:04;;;;;;;1.63;0.20;;;;;;;;;;5210292;22;20455;-79
2024/01/18 11:07:06;;;;;;;0.93;0.63;;;;;;;;;;5197849;22;20091;-81
2024/01/18 11:09:12;;;;;;;1.67;0.28;;;;;;;;;;5195500;22;20015;-80
2024/01/18 11:11:14;;;;;;;0.63;0.20;;;;;;;;;;5198035;22;20047;-80
2024/01/18 11:13:16;;;;;;;0.88;0.40;;;;;;;;;;5198781;22;20470;-80
2024/01/18 11:15:18;;;;;;;3.33;1.08;;;;;;;;;;5196186;22;20023;-80
2024/01/18 11:17:21;;;;;;;3.60;0.40;;;;;;;;;;5202117;22;20019;-80
2024/01/18 11:19:41;;;;;;;2.28;0.30;;;;;;;;;;5248503;22;20082;-80
2024/01/18 11:21:45;;;;;;;2.58;0.32;;;;;;;;;;5248138;22;20050;-80
2024/01/18 11:23:47;;;;;;;1.90;0.50;;;;;;;;;;5247520;22;20014;-80
2024/01/18 11:25:49;;;;;;;1.42;0.60;;;;;;;;;;5247339;22;20091;-80
2024/01/18 11:27:52;;;;;;;10.02;1.10;;;;;;;;;;5247069;22;20015;-80
2024/01/18 11:29:53;;;;;;;2.92;1.10;;;;;;;;;;5246156;22;20094;-79
2024/01/18 11:31:54;;;;;;;3.05;0.95;;;;;;;;;;5247568;22;20022;-80
2024/01/18 11:33:56;;;;;;;7.60;0.60;;;;;;;;;;5247118;22;20086;-80
2024/01/18 11:35:59;;;;;;;1.23;0.52;;;;;;;;;;5246449;22;20018;-80
2024/01/18 11:38:18;;;;;;;1.67;0.85;;;;;;;;;;5246591;22;20026;-80
2024/01/18 11:40:21;;;;;;;2.13;0.40;;;;;;;;;;5246480;22;20079;-80
2024/01/18 11:42:24;;;;;;;1.98;0.40;;;;;;;;;;5246430;22;20445;-80
2024/01/18 11:44:26;;;;;;;1.55;0.30;;;;;;;;;;5246193;22;20021;-80
2024/01/18 11:46:44;;;;;;;6.78;1.80;;;;;;;;;;5245576;22;20094;-80
2024/01/18 11:48:45;;;;;;;0.97;0.77;;;;;;;;;;5246349;22;20014;-80
2024/01/18 11:50:46;;;;;;;0.93;0.30;;;;;;;;;;5246477;22;20466;-80
2024/01/18 11:52:47;;;;;;;2.22;0.73;;;;;;;;;;5247515;22;20015;-80
2024/01/18 11:54:52;;;;;;;2.85;0.50;;;;;;;;;;5246713;22;20064;-79
2024/01/18 11:56:56;;;;;;;1.15;0.40;;;;;;;;;;5247426;22;20345;-79
2024/01/18 11:59:00;;;;;;;3.05;0.70;;;;;;;;;;5246925;22;20025;-80
2024/01/18 12:01:01;;;;;;;3.00;0.57;;;;;;;;;;5247094;22;20029;-79
2024/01/18 12:03:03;;;;;;;6.45;3.15;;;;;;;;;;5246768;22;20011;-79
2024/01/18 12:05:05;;;;;;;5.20;2.05;;;;;;;;;;5247049;22;20015;-80
2024/01/18 12:07:06;;;;;;;1.17;0.50;;;;;;;;;;5246258;22;20015;-79
2024/01/18 12:09:08;;;;;;;3.03;1.10;;;;;;;;;;5245570;22;20015;-80
2024/01/18 12:11:10;;;;;;;4.00;0.80;;;;;;;;;;5218270;22;20025;-79
2024/01/18 12:13:12;;;;;;;1.20;0.70;;;;;;;;;;5245905;22;20026;-79
2024/01/18 12:15:19;;;;;;;2.60;0.57;;;;;;;;;;5220596;22;20469;-79
2024/01/18 12:17:20;;;;;;;2.42;0.70;;;;;;;;;;5247299;22;20445;-79
2024/01/18 12:19:33;;;;;;;6.65;0.52;;;;;;;;;;5247042;22;20030;-79
2024/01/18 12:21:35;;;;;;;0.80;0.28;;;;;;;;;;5247652;22;20084;-79
2024/01/18 12:23:36;;;;;;;1.83;0.60;;;;;;;;;;5248093;22;20090;-79
2024/01/18 12:25:38;;;;;;;2.75;0.43;;;;;;;;;;5247943;22;20013;-79
2024/01/18 12:27:40;;;;;;;0.90;0.60;;;;;;;;;;5250728;22;20114;-79
2024/01/18 12:29:42;;;;;;;2.35;0.43;;;;;;;;;;5249018;22;20063;-79
2024/01/18 12:31:46;;;;;;;2.08;1.02;;;;;;;;;;5249251;22;20019;-79
2024/01/18 12:33:47;;;;;;;1.25;0.47;;;;;;;;;;5247577;22;20011;-80
2024/01/18 12:35:48;;;;;;;3.92;0.90;;;;;;;;;;5247520;22;20044;-79
2024/01/18 12:37:50;;;;;;;2.15;0.70;;;;;;;;;;5247736;22;20030;-80
2024/01/18 12:39:54;;;;;;;4.05;0.90;;;;;;;;;;5246680;22;20457;-79